Rock Glen, New York
Current Conditions -  °F | °C
As of 7:54 AM on Thursday 23 Oct 2014 (Local Time) from KDSV Reporting Station
Overcast Overcast  
Wind Chill: 39°   Ceiling: 2400
Heat Index: 45°   Visibility: 10mi
Dew Point: 40°   Wind: 13mph
Humidity: 82%   Direction: 320°NW
Pressure: 30.09"   Gusts: NA
Location:  42.674°N, 78.109°W
Report Text: KDSV 231154Z AUTO 32011KT 10SM OVC024 07/04 A3009 RMK AO2 SLP202 T00720044 10083 20061 51003
Loading
Personal Weather Stations






























Interactive Weather Map
Tropical Storm Tracking
New forecast layout! Learn more

10-Day Weather Forecast

Advertisements
Track Severe Weather on mobile